Earle, Arkansas
Current Conditions -  °F | °C
As of 2:53 AM on Sunday 23 Nov 2014 (Local Time) from KAWM Reporting Station
Scattered Clouds Scattered Clouds  
Wind Chill: 57°   Ceiling: Unl
Heat Index: 57°   Visibility: 10mi
Dew Point: 54°   Wind: 13mph
Humidity: 89%   Direction: 150°SSE
Pressure: 29.82"   Gusts: NA
Location:  35.28°N, 90.47°W
Report Text: KAWM 230853Z AUTO 15011KT 10SM FEW027 FEW036 SCT110 14/12 A2982 RMK AO2 SLP096 T01390122 56027
Loading
Personal Weather Stations






























Interactive Weather Map New forecast layout! Learn more

10-Day Weather Forecast

Advertisements
Track Severe Weather on mobile